Time;durP1;ratioP1;P1;durP2;ratioP2;P2;SDS_P1;SDS_P2;PMS_P1;PMS_P2;Temp;Humidity;BMP_temperature;BMP_pressure;BME280_temperature;BME280_humidity;BME280_pressure;Samples;Min_cycle;Max_cycle;Signal;HPM_P1;HPM_P2
2023/12/13 00:01:27;;;;;;;;;;;;;;;;;;2213072;58;1870;-17
2023/12/13 00:03:59;;;;;;;;;;;;;;;;;;2211982;58;1907;-17
2023/12/13 00:06:29;;;;;;;;;;;;;;;;;;2214186;58;2268;-18
2023/12/13 00:09:01;;;;;;;;;;;;;;;;;;2212449;66;1857;-17
2023/12/13 00:11:31;;;;;;;;;;;;;;;;;;2213177;58;2111;-17
2023/12/13 00:14:02;;;;;;;;;;;;;;;;;;2213862;58;2246;-18
2023/12/13 00:16:32;;;;;;;;;;;;;;;;;;2215049;66;2332;-18
2023/12/13 00:19:04;;;;;;;;;;;;;;;;;;2212633;58;1949;-18
2023/12/13 00:21:35;;;;;;;;;;;;;;;;;;2214319;66;2283;-21
2023/12/13 00:24:09;;;;;;;;;;;;;;;;;;2213749;58;2542;-20
2023/12/13 00:26:40;;;;;;;;;;;;;;;;;;2213862;58;2671;-20
2023/12/13 00:29:10;;;;;;;;;;;;;;;;;;2213855;58;2004;-19
2023/12/13 00:31:40;;;;;;;;;;;;;;;;;;2214797;58;2074;-18
2023/12/13 00:34:11;;;;;;;;;;;;;;;;;;2213739;58;2115;-20
2023/12/13 00:36:42;;;;;;;;;;;;;;;;;;2215453;58;1715;-20
2023/12/13 00:39:12;;;;;;;;;;;;;;;;;;2213878;59;2309;-20
2023/12/13 00:41:42;;;;;;;;;;;;;;;;;;2214305;58;2157;-20
2023/12/13 00:44:13;;;;;;;;;;;;;;;;;;2212541;59;2353;-18
2023/12/13 00:46:43;;;;;;;;;;;;;;;;;;2215001;58;1744;-21
2023/12/13 00:49:14;;;;;;;;;;;;;;;;;;2212697;59;2093;-20
2023/12/13 00:51:44;;;;;;;;;;;;;;;;;;2214791;58;1842;-20
2023/12/13 00:54:15;;;;;;;;;;;;;;;;;;2212649;66;2002;-20
2023/12/13 00:56:45;;;;;;;;;;;;;;;;;;2215394;58;2925;-21
2023/12/13 00:59:15;;;;;;;;;;;;;;;;;;2213668;58;2446;-19
2023/12/13 01:01:46;;;;;;;;;;;;;;;;;;2214257;58;2340;-20
2023/12/13 01:04:16;;;;;;;;;;;;;;;;;;2214078;59;2482;-17
2023/12/13 01:06:47;;;;;;;;;;;;;;;;;;2214217;58;2634;-20
2023/12/13 01:09:17;;;;;;;;;;;;;;;;;;2213236;66;2339;-20
2023/12/13 01:11:48;;;;;;;;;;;;;;;;;;2213822;58;2402;-21
2023/12/13 01:14:18;;;;;;;;;;;;;;;;;;2213611;58;2516;-19
2023/12/13 01:16:48;;;;;;;;;;;;;;;;;;2213674;58;1897;-19
2023/12/13 01:19:19;;;;;;;;;;;;;;;;;;2207173;66;2438;-20
2023/12/13 01:21:49;;;;;;;;;;;;;;;;;;2214221;66;2220;-20
2023/12/13 01:24:19;;;;;;;;;;;;;;;;;;2213853;66;1998;-20
2023/12/13 01:26:49;;;;;;;;;;;;;;;;;;2214087;66;1784;-19
2023/12/13 01:29:20;;;;;;;;;;;;;;;;;;2212467;66;2639;-19
2023/12/13 01:31:50;;;;;;;;;;;;;;;;;;2215067;58;2278;-20
2023/12/13 01:34:20;;;;;;;;;;;;;;;;;;2212814;59;2116;-19
2023/12/13 01:36:51;;;;;;;;;;;;;;;;;;2214155;66;2147;-20
2023/12/13 01:39:21;;;;;;;;;;;;;;;;;;2213536;66;2397;-18
2023/12/13 01:41:51;;;;;;;;;;;;;;;;;;2213967;66;2306;-20
2023/12/13 01:44:24;;;;;;;;;;;;;;;;;;2213262;66;2123;-18
2023/12/13 01:46:55;;;;;;;;;;;;;;;;;;2214928;66;2386;-20
2023/12/13 01:49:26;;;;;;;;;;;;;;;;;;2212786;66;2195;-19
2023/12/13 01:51:57;;;;;;;;;;;;;;;;;;2210645;59;1852;-19
2023/12/13 01:54:28;;;;;;;;;;;;;;;;;;2212936;58;1975;-20
2023/12/13 01:56:59;;;;;;;;;;;;;;;;;;2212848;58;1964;-20
2023/12/13 01:59:32;;;;;;;;;;;;;;;;;;2214314;59;1775;-18
2023/12/13 02:02:03;;;;;;;;;;;;;;;;;;2212752;59;1833;-19
2023/12/13 02:04:34;;;;;;;;;;;;;;;;;;2214111;58;2275;-19
2023/12/13 02:07:05;;;;;;;;;;;;;;;;;;2213659;58;2180;-20
2023/12/13 02:09:35;;;;;;;;;;;;;;;;;;2214072;58;2030;-20
2023/12/13 02:12:06;;;;;;;;;;;;;;;;;;2212667;59;1841;-19
2023/12/13 02:14:37;;;;;;;;;;;;;;;;;;2214563;58;2326;-19
2023/12/13 02:17:07;;;;;;;;;;;;;;;;;;2213053;66;2484;-20
2023/12/13 02:19:38;;;;;;;;;;;;;;;;;;2213867;66;2301;-19
2023/12/13 02:22:08;;;;;;;;;;;;;;;;;;2212801;58;2020;-19
2023/12/13 02:24:40;;;;;;;;;;;;;;;;;;2214145;66;2613;-19
2023/12/13 02:27:11;;;;;;;;;;;;;;;;;;2213873;66;2098;-18
2023/12/13 02:29:41;;;;;;;;;;;;;;;;;;2214148;58;2306;-21
2023/12/13 02:32:11;;;;;;;;;;;;;;;;;;2213501;58;1890;-20
2023/12/13 02:34:42;;;;;;;;;;;;;;;;;;2214059;59;2315;-20
2023/12/13 02:37:12;;;;;;;;;;;;;;;;;;2212882;66;1862;-20
2023/12/13 02:39:42;;;;;;;;;;;;;;;;;;2214577;58;2388;-19
2023/12/13 02:42:13;;;;;;;;;;;;;;;;;;2213532;58;2695;-20
2023/12/13 02:44:43;;;;;;;;;;;;;;;;;;2214161;66;1791;-20
2023/12/13 02:47:14;;;;;;;;;;;;;;;;;;2212620;58;1824;-19
2023/12/13 02:49:44;;;;;;;;;;;;;;;;;;2214529;66;1755;-20
2023/12/13 02:52:14;;;;;;;;;;;;;;;;;;2213441;66;1949;-18
2023/12/13 02:54:45;;;;;;;;;;;;;;;;;;2214284;66;1944;-19
2023/12/13 02:57:15;;;;;;;;;;;;;;;;;;2213223;66;2305;-19
2023/12/13 02:59:45;;;;;;;;;;;;;;;;;;2214398;58;2281;-21
2023/12/13 03:02:16;;;;;;;;;;;;;;;;;;2213012;66;1870;-19
2023/12/13 03:04:46;;;;;;;;;;;;;;;;;;2214388;66;1755;-19
2023/12/13 03:07:17;;;;;;;;;;;;;;;;;;2213064;58;2238;-19
2023/12/13 03:09:47;;;;;;;;;;;;;;;;;;2213718;58;2485;-18
2023/12/13 03:12:17;;;;;;;;;;;;;;;;;;2214789;66;2478;-20
2023/12/13 03:14:48;;;;;;;;;;;;;;;;;;2213363;58;2030;-17
2023/12/13 03:17:18;;;;;;;;;;;;;;;;;;2212744;66;1901;-19
2023/12/13 03:19:48;;;;;;;;;;;;;;;;;;2214063;66;2293;-21
2023/12/13 03:22:18;;;;;;;;;;;;;;;;;;2212106;63;2508;-19
2023/12/13 03:24:50;;;;;;;;;;;;;;;;;;2212960;66;2096;-21
2023/12/13 03:27:21;;;;;;;;;;;;;;;;;;2212655;58;1958;-20
2023/12/13 03:29:51;;;;;;;;;;;;;;;;;;2213308;59;1695;-18
2023/12/13 03:32:22;;;;;;;;;;;;;;;;;;2212582;58;2424;-19
2023/12/13 03:34:53;;;;;;;;;;;;;;;;;;2214453;66;2510;-19
2023/12/13 03:37:23;;;;;;;;;;;;;;;;;;2213191;66;1824;-20
2023/12/13 03:39:53;;;;;;;;;;;;;;;;;;2214492;59;1788;-19
2023/12/13 03:42:23;;;;;;;;;;;;;;;;;;2212682;58;1879;-18
2023/12/13 03:44:55;;;;;;;;;;;;;;;;;;2215272;66;2336;-19
2023/12/13 03:47:26;;;;;;;;;;;;;;;;;;2212758;66;2275;-19
2023/12/13 03:49:56;;;;;;;;;;;;;;;;;;2210793;66;1928;-18
2023/12/13 03:52:26;;;;;;;;;;;;;;;;;;2213024;66;2062;-18
2023/12/13 03:54:57;;;;;;;;;;;;;;;;;;2211160;66;2596;-19
2023/12/13 03:57:27;;;;;;;;;;;;;;;;;;2213441;66;2528;-19
2023/12/13 03:59:57;;;;;;;;;;;;;;;;;;2214981;58;1842;-18
2023/12/13 04:02:27;;;;;;;;;;;;;;;;;;2214037;58;2106;-19
2023/12/13 04:04:58;;;;;;;;;;;;;;;;;;2214571;58;2105;-18
2023/12/13 04:07:28;;;;;;;;;;;;;;;;;;2213170;58;2485;-19
2023/12/13 04:09:58;;;;;;;;;;;;;;;;;;2214518;58;1805;-20
2023/12/13 04:12:29;;;;;;;;;;;;;;;;;;2213546;66;1961;-19
2023/12/13 04:14:59;;;;;;;;;;;;;;;;;;2215066;66;2314;-19
2023/12/13 04:17:29;;;;;;;;;;;;;;;;;;2209813;66;1868;-20
2023/12/13 04:20:00;;;;;;;;;;;;;;;;;;2213658;66;2522;-18
2023/12/13 04:22:30;;;;;;;;;;;;;;;;;;2213046;59;2085;-19
2023/12/13 04:25:00;;;;;;;;;;;;;;;;;;2214671;61;1699;-19
2023/12/13 04:27:31;;;;;;;;;;;;;;;;;;2213051;66;1983;-20
2023/12/13 04:30:01;;;;;;;;;;;;;;;;;;2213849;59;1793;-20
2023/12/13 04:32:31;;;;;;;;;;;;;;;;;;2212288;58;2131;-20
2023/12/13 04:35:02;;;;;;;;;;;;;;;;;;2214073;59;2485;-19
2023/12/13 04:37:33;;;;;;;;;;;;;;;;;;2213558;66;2602;-19
2023/12/13 04:40:03;;;;;;;;;;;;;;;;;;2212872;59;1791;-19
2023/12/13 04:42:34;;;;;;;;;;;;;;;;;;2213385;58;1845;-19
2023/12/13 04:45:04;;;;;;;;;;;;;;;;;;2213527;66;2250;-20
2023/12/13 04:47:35;;;;;;;;;;;;;;;;;;2213256;66;1859;-19
2023/12/13 04:50:06;;;;;;;;;;;;;;;;;;2213388;66;2814;-18
2023/12/13 04:52:36;;;;;;;;;;;;;;;;;;2212367;59;2242;-19
2023/12/13 04:55:06;;;;;;;;;;;;;;;;;;2213323;66;2011;-20
2023/12/13 04:57:37;;;;;;;;;;;;;;;;;;2213242;66;2762;-17
2023/12/13 05:00:10;;;;;;;;;;;;;;;;;;2213427;66;2407;-19
2023/12/13 05:02:40;;;;;;;;;;;;;;;;;;2216449;58;2147;-19
2023/12/13 05:05:10;;;;;;;;;;;;;;;;;;2213530;66;1870;-19
2023/12/13 05:07:41;;;;;;;;;;;;;;;;;;2215772;58;2491;-17
2023/12/13 05:10:11;;;;;;;;;;;;;;;;;;2213275;58;2208;-19
2023/12/13 05:12:41;;;;;;;;;;;;;;;;;;2213678;59;1709;-18
2023/12/13 05:15:11;;;;;;;;;;;;;;;;;;2212148;58;2825;-18
2023/12/13 05:17:42;;;;;;;;;;;;;;;;;;2213738;66;1970;-18
2023/12/13 05:20:15;;;;;;;;;;;;;;;;;;2212150;66;2170;-18
2023/12/13 05:22:46;;;;;;;;;;;;;;;;;;2213777;66;1834;-17
2023/12/13 05:25:16;;;;;;;;;;;;;;;;;;2213273;59;1854;-17
2023/12/13 05:27:46;;;;;;;;;;;;;;;;;;2213462;66;1732;-19
2023/12/13 05:30:18;;;;;;;;;;;;;;;;;;2212956;66;2611;-20
2023/12/13 05:32:49;;;;;;;;;;;;;;;;;;2214641;58;1970;-20
2023/12/13 05:35:20;;;;;;;;;;;;;;;;;;2212943;66;1998;-17
2023/12/13 05:37:50;;;;;;;;;;;;;;;;;;2214148;66;2609;-18
2023/12/13 05:40:20;;;;;;;;;;;;;;;;;;2212226;66;1865;-19
2023/12/13 05:42:51;;;;;;;;;;;;;;;;;;2213427;58;2040;-17
2023/12/13 05:45:21;;;;;;;;;;;;;;;;;;2212095;58;1831;-18
2023/12/13 05:47:51;;;;;;;;;;;;;;;;;;2214367;66;1789;-18
2023/12/13 05:50:21;;;;;;;;;;;;;;;;;;2213232;66;2377;-19
2023/12/13 05:52:52;;;;;;;;;;;;;;;;;;2213753;66;2081;-16
2023/12/13 05:55:22;;;;;;;;;;;;;;;;;;2212924;66;1952;-17
2023/12/13 05:57:52;;;;;;;;;;;;;;;;;;2214268;58;1743;-17
2023/12/13 06:00:23;;;;;;;;;;;;;;;;;;2214221;66;1742;-18
2023/12/13 06:02:53;;;;;;;;;;;;;;;;;;2212824;66;2081;-16
2023/12/13 06:05:24;;;;;;;;;;;;;;;;;;2212177;58;2319;-17
2023/12/13 06:07:54;;;;;;;;;;;;;;;;;;2213846;58;1808;-18
2023/12/13 06:10:24;;;;;;;;;;;;;;;;;;2213362;58;1986;-18
2023/12/13 06:12:56;;;;;;;;;;;;;;;;;;2214308;66;2014;-19
2023/12/13 06:15:26;;;;;;;;;;;;;;;;;;2212899;58;2002;-19
2023/12/13 06:17:57;;;;;;;;;;;;;;;;;;2207540;58;1987;-17
2023/12/13 06:20:27;;;;;;;;;;;;;;;;;;2212535;66;2249;-18
2023/12/13 06:22:57;;;;;;;;;;;;;;;;;;2214867;66;1731;-18
2023/12/13 06:25:28;;;;;;;;;;;;;;;;;;2212592;58;3530;-19
2023/12/13 06:27:58;;;;;;;;;;;;;;;;;;2213893;59;2271;-18
2023/12/13 06:30:28;;;;;;;;;;;;;;;;;;2209031;66;1839;-19
2023/12/13 06:32:59;;;;;;;;;;;;;;;;;;2214545;58;2269;-19
2023/12/13 06:35:29;;;;;;;;;;;;;;;;;;2212675;66;2245;-18
2023/12/13 06:37:59;;;;;;;;;;;;;;;;;;2213821;66;1824;-17
2023/12/13 06:40:29;;;;;;;;;;;;;;;;;;2212154;66;1838;-18
2023/12/13 06:43:00;;;;;;;;;;;;;;;;;;2214175;59;1878;-18
2023/12/13 06:45:30;;;;;;;;;;;;;;;;;;2213592;66;2090;-16
2023/12/13 06:48:00;;;;;;;;;;;;;;;;;;2213504;66;1764;-18
2023/12/13 06:50:30;;;;;;;;;;;;;;;;;;2212749;66;2240;-18
2023/12/13 06:53:01;;;;;;;;;;;;;;;;;;2213287;58;2480;-18
2023/12/13 06:55:31;;;;;;;;;;;;;;;;;;2212859;59;2514;-18
2023/12/13 06:58:02;;;;;;;;;;;;;;;;;;2213798;66;1942;-18
2023/12/13 07:00:32;;;;;;;;;;;;;;;;;;2212346;66;2436;-17
2023/12/13 07:03:02;;;;;;;;;;;;;;;;;;2213419;58;1743;-19
2023/12/13 07:05:32;;;;;;;;;;;;;;;;;;2213191;58;2314;-19
2023/12/13 07:08:03;;;;;;;;;;;;;;;;;;2214015;58;1953;-19
2023/12/13 07:10:33;;;;;;;;;;;;;;;;;;2213921;58;2309;-18
2023/12/13 07:13:03;;;;;;;;;;;;;;;;;;2214219;66;3226;-18
2023/12/13 07:15:34;;;;;;;;;;;;;;;;;;2214337;58;2190;-18
2023/12/13 07:18:04;;;;;;;;;;;;;;;;;;2215297;58;2017;-19
2023/12/13 07:20:35;;;;;;;;;;;;;;;;;;2213998;66;1743;-18
2023/12/13 07:23:05;;;;;;;;;;;;;;;;;;2214150;66;1868;-19
2023/12/13 07:25:42;;;;;;;;;;;;;;;;;;2215167;53;2419;-79
2023/12/13 07:28:21;;;;;;;;;;;;;;;;;;2211667;59;1607;-79
2023/12/13 07:30:55;;;;;;;;;;;;;;;;;;2214434;59;2796;-79
2023/12/13 07:33:34;;;;;;;;;;;;;;;;;;2212266;59;2106;-78
2023/12/13 07:36:13;;;;;;;;;;;;;;;;;;2213364;59;2271;-79
2023/12/13 07:38:44;;;;;;;;;;;;;;;;;;2208581;67;1811;-81
2023/12/13 07:41:17;;;;;;;;;;;;;;;;;;2214685;59;2404;-79
2023/12/13 07:43:53;;;;;;;;;;;;;;;;;;2213229;59;2162;-79
2023/12/13 07:46:31;;;;;;;;;;;;;;;;;;2209943;59;2072;-79
2023/12/13 07:49:03;;;;;;;;;;;;;;;;;;2209607;59;2151;-79
2023/12/13 07:51:33;;;;;;;;;;;;;;;;;;2212777;59;1947;-79
2023/12/13 07:54:07;;;;;;;;;;;;;;;;;;2212678;59;1959;-81
2023/12/13 07:56:37;;;;;;;;;;;;;;;;;;2209814;67;1835;-79
2023/12/13 07:59:08;;;;;;;;;;;;;;;;;;2212539;67;1983;-79
2023/12/13 08:01:38;;;;;;;;;;;;;;;;;;2209807;59;1964;-79
2023/12/13 08:04:20;;;;;;;;;;;;;;;;;;2210040;59;1850;-79
2023/12/13 08:06:56;;;;;;;;;;;;;;;;;;2213112;59;2290;-79
2023/12/13 08:09:29;;;;;;;;;;;;;;;;;;2213060;59;2460;-81
2023/12/13 08:12:06;;;;;;;;;;;;;;;;;;2210066;59;1776;-80
2023/12/13 08:14:37;;;;;;;;;;;;;;;;;;2211988;59;1980;-79
2023/12/13 08:17:08;;;;;;;;;;;;;;;;;;2210216;67;1725;-80
2023/12/13 08:19:48;;;;;;;;;;;;;;;;;;2212027;59;2099;-79
2023/12/13 08:22:18;;;;;;;;;;;;;;;;;;2214049;59;1446;-79
2023/12/13 08:25:18;;;;;;;;;;;;;;;;;;;;;
2023/12/13 08:27:49;;;;;;;;;;;;;;;;;;2213131;59;2231;-81
2023/12/13 08:30:21;;;;;;;;;;;;;;;;;;2210688;59;2128;-79
2023/12/13 08:32:54;;;;;;;;;;;;;;;;;;2209650;59;2227;-79
2023/12/13 08:35:33;;;;;;;;;;;;;;;;;;2211497;59;2198;-79
2023/12/13 08:38:04;;;;;;;;;;;;;;;;;;2213080;59;2451;-79
2023/12/13 08:40:40;;;;;;;;;;;;;;;;;;2210831;59;1872;-80
2023/12/13 08:43:27;;;;;;;;;;;;;;;;;;2211528;59;1960;-80
2023/12/13 08:46:10;;;;;;;;;;;;;;;;;;2209083;59;1876;-79
2023/12/13 08:48:41;;;;;;;;;;;;;;;;;;2209669;59;2386;-79
2023/12/13 08:51:11;;;;;;;;;;;;;;;;;;2211348;59;1911;-79
2023/12/13 08:53:42;;;;;;;;;;;;;;;;;;2206983;59;1983;-79
2023/12/13 08:56:15;;;;;;;;;;;;;;;;;;2211109;59;2199;-79
2023/12/13 08:58:52;;;;;;;;;;;;;;;;;;2211013;59;1726;-79
2023/12/13 09:01:23;;;;;;;;;;;;;;;;;;2209963;59;2135;-79
2023/12/13 09:04:17;;;;;;;;;;;;;;;;;;2208166;59;2272;-79
2023/12/13 09:06:47;;;;;;;;;;;;;;;;;;2211357;59;2696;-79
2023/12/13 09:09:21;;;;;;;;;;;;;;;;;;2211909;59;2322;-79
2023/12/13 09:11:54;;;;;;;;;;;;;;;;;;2211920;59;2016;-79
2023/12/13 09:14:32;;;;;;;;;;;;;;;;;;2211434;59;3214;-81
2023/12/13 09:17:17;;;;;;;;;;;;;;;;;;2211953;59;2195;-79
2023/12/13 09:19:53;;;;;;;;;;;;;;;;;;2207379;59;2332;-79
2023/12/13 09:22:23;;;;;;;;;;;;;;;;;;2208782;59;1648;-81
2023/12/13 09:25:05;;;;;;;;;;;;;;;;;;2209952;59;2175;-79
2023/12/13 09:27:36;;;;;;;;;;;;;;;;;;2208744;59;1741;-79
2023/12/13 09:30:13;;;;;;;;;;;;;;;;;;2210103;59;1891;-79
2023/12/13 09:32:49;;;;;;;;;;;;;;;;;;2211476;59;1518;-79
2023/12/13 09:35:19;;;;;;;;;;;;;;;;;;2211468;59;1931;-79
2023/12/13 09:37:57;;;;;;;;;;;;;;;;;;2210265;59;2331;-79
2023/12/13 09:40:35;;;;;;;;;;;;;;;;;;2211719;59;2184;-79
2023/12/13 09:43:12;;;;;;;;;;;;;;;;;;2209721;67;1074;-79
2023/12/13 09:45:46;;;;;;;;;;;;;;;;;;2211002;59;2071;-79
2023/12/13 09:48:21;;;;;;;;;;;;;;;;;;2213236;59;2248;-79
2023/12/13 09:50:57;;;;;;;;;;;;;;;;;;2211443;59;1970;-79
2023/12/13 09:53:40;;;;;;;;;;;;;;;;;;2212055;59;2461;-80
2023/12/13 09:56:14;;;;;;;;;;;;;;;;;;2214361;59;2481;-80
2023/12/13 09:58:44;;;;;;;;;;;;;;;;;;2209538;59;2269;-80
2023/12/13 10:01:28;;;;;;;;;;;;;;;;;;2214736;59;2782;-82
2023/12/13 10:04:03;;;;;;;;;;;;;;;;;;2212480;59;2771;-79
2023/12/13 10:06:39;;;;;;;;;;;;;;;;;;2213954;59;2363;-80
2023/12/13 10:09:28;;;;;;;;;;;;;;;;;;2212634;59;2155;-80
2023/12/13 10:12:04;;;;;;;;;;;;;;;;;;2211419;59;2434;-79
2023/12/13 10:14:35;;;;;;;;;;;;;;;;;;2212588;59;2518;-79
2023/12/13 10:17:09;;;;;;;;;;;;;;;;;;2208645;59;2466;-79
2023/12/13 10:19:43;;;;;;;;;;;;;;;;;;2208588;59;2230;-81
2023/12/13 10:22:17;;;;;;;;;;;;;;;;;;2212251;59;1994;-80
2023/12/13 10:24:47;;;;;;;;;;;;;;;;;;2212207;59;2492;-80
2023/12/13 10:27:18;;;;;;;;;;;;;;;;;;2208990;59;2369;-78
2023/12/13 10:29:49;;;;;;;;;;;;;;;;;;2210750;59;2657;-79
2023/12/13 10:32:24;;;;;;;;;;;;;;;;;;2212258;59;2539;-81
2023/12/13 10:34:59;;;;;;;;;;;;;;;;;;2209828;59;2635;-82
2023/12/13 10:37:33;;;;;;;;;;;;;;;;;;2207927;59;2829;-80
2023/12/13 10:40:16;;;;;;;;;;;;;;;;;;2211591;59;1854;-81
2023/12/13 10:42:57;;;;;;;;;;;;;;;;;;2212375;59;2366;-80
2023/12/13 10:45:28;;;;;;;;;;;;;;;;;;2212254;59;1615;-79
2023/12/13 10:48:03;;;;;;;;;;;;;;;;;;2205776;59;2456;-80
2023/12/13 10:50:38;;;;;;;;;;;;;;;;;;2210455;59;2257;-80
2023/12/13 10:53:08;;;;;;;;;;;;;;;;;;2208938;59;4248;-81
2023/12/13 10:55:44;;;;;;;;;;;;;;;;;;2208408;59;2530;-80
2023/12/13 10:58:18;;;;;;;;;;;;;;;;;;2210931;59;2033;-81
2023/12/13 11:00:49;;;;;;;;;;;;;;;;;;2211002;59;2557;-81
2023/12/13 11:03:43;;;;;;;;;;;;;;;;;;2211738;59;2352;-80
2023/12/13 11:06:22;;;;;;;;;;;;;;;;;;2213161;59;2168;-79
2023/12/13 11:08:53;;;;;;;;;;;;;;;;;;2205779;59;2538;-79
2023/12/13 11:11:27;;;;;;;;;;;;;;;;;;2212434;59;2574;-78
2023/12/13 11:13:57;;;;;;;;;;;;;;;;;;2213113;59;2517;-80
2023/12/13 11:16:37;;;;;;;;;;;;;;;;;;2212481;59;2296;-79
2023/12/13 11:19:10;;;;;;;;;;;;;;;;;;2208787;59;1749;-80
2023/12/13 11:21:41;;;;;;;;;;;;;;;;;;2211429;59;2596;-80
2023/12/13 11:24:13;;;;;;;;;;;;;;;;;;2208998;59;1641;-80
2023/12/13 11:26:50;;;;;;;;;;;;;;;;;;2209080;59;2454;-80
2023/12/13 11:29:28;;;;;;;;;;;;;;;;;;2208802;59;1972;-80
2023/12/13 11:32:01;;;;;;;;;;;;;;;;;;2212748;59;2926;-80
2023/12/13 11:34:59;;;;;;;;;;;;;;;;;;2211450;59;1949;-80
2023/12/13 11:37:33;;;;;;;;;;;;;;;;;;2213902;67;1867;-80
2023/12/13 11:40:06;;;;;;;;;;;;;;;;;;2210531;59;2322;-80
2023/12/13 11:42:43;;;;;;;;;;;;;;;;;;2209119;59;2682;-80
2023/12/13 11:45:19;;;;;;;;;;;;;;;;;;2207613;59;1899;-80
2023/12/13 11:47:50;;;;;;;;;;;;;;;;;;2212363;59;2279;-80
2023/12/13 11:50:21;;;;;;;;;;;;;;;;;;2213195;59;2427;-80
2023/12/13 11:52:52;;;;;;;;;;;;;;;;;;2212110;59;2383;-80
2023/12/13 11:55:22;;;;;;;;;;;;;;;;;;2209549;59;1925;-79
2023/12/13 11:57:58;;;;;;;;;;;;;;;;;;2211865;59;1841;-80
2023/12/13 12:00:28;;;;;;;;;;;;;;;;;;2211683;67;2436;-82
2023/12/13 12:02:58;;;;;;;;;;;;;;;;;;2209111;59;2227;-79
2023/12/13 12:05:29;;;;;;;;;;;;;;;;;;2212098;59;1810;-80
2023/12/13 12:08:01;;;;;;;;;;;;;;;;;;2211723;59;2283;-80
2023/12/13 12:10:43;;;;;;;;;;;;;;;;;;2212265;59;2674;-80
2023/12/13 12:13:28;;;;;;;;;;;;;;;;;;2211964;59;3313;-83
2023/12/13 12:16:00;;;;;;;;;;;;;;;;;;2213305;59;1632;-80
2023/12/13 12:18:31;;;;;;;;;;;;;;;;;;2210945;59;1898;-80
2023/12/13 12:21:10;;;;;;;;;;;;;;;;;;2212025;59;1889;-80
2023/12/13 12:23:49;;;;;;;;;;;;;;;;;;2211810;59;2265;-82
2023/12/13 12:26:23;;;;;;;;;;;;;;;;;;2211629;59;2112;-80
2023/12/13 12:28:56;;;;;;;;;;;;;;;;;;2211414;59;2230;-80
2023/12/13 12:31:49;;;;;;;;;;;;;;;;;;2214729;59;2059;-80
2023/12/13 12:34:26;;;;;;;;;;;;;;;;;;2210101;59;2449;-81
2023/12/13 12:36:57;;;;;;;;;;;;;;;;;;2212380;67;1035;-80
2023/12/13 12:39:30;;;;;;;;;;;;;;;;;;2213058;67;1203;-80
2023/12/13 12:42:03;;;;;;;;;;;;;;;;;;2212925;67;1285;-80
2023/12/13 12:44:42;;;;;;;;;;;;;;;;;;2213149;67;1094;-80
2023/12/13 12:47:18;;;;;;;;;;;;;;;;;;2213097;67;1626;-79
2023/12/13 12:49:58;;;;;;;;;;;;;;;;;;2212846;67;1259;-80
2023/12/13 12:52:32;;;;;;;;;;;;;;;;;;2213885;59;1466;-80
2023/12/13 12:55:04;;;;;;;;;;;;;;;;;;2210816;67;1957;-81
2023/12/13 12:57:43;;;;;;;;;;;;;;;;;;2219269;59;2600;-80
2023/12/13 13:00:13;;;;;;;;;;;;;;;;;;2215611;59;1372;-80
2023/12/13 13:02:52;;;;;;;;;;;;;;;;;;2215003;59;1354;-80
2023/12/13 13:05:26;;;;;;;;;;;;;;;;;;2215084;59;1375;-80
2023/12/13 13:08:03;;;;;;;;;;;;;;;;;;2216476;59;1318;-79
2023/12/13 13:10:33;;;;;;;;;;;;;;;;;;2216807;59;1326;-80
2023/12/13 13:13:09;;;;;;;;;;;;;;;;;;2205986;67;1040;-80
2023/12/13 13:15:48;;;;;;;;;;;;;;;;;;2215038;67;1942;-80
2023/12/13 13:18:34;;;;;;;;;;;;;;;;;;2214086;59;1920;-80
2023/12/13 13:21:07;;;;;;;;;;;;;;;;;;2214018;59;2317;-80
2023/12/13 13:23:40;;;;;;;;;;;;;;;;;;2210176;59;2073;-81
2023/12/13 13:26:21;;;;;;;;;;;;;;;;;;2212858;59;2145;-80
2023/12/13 13:28:54;;;;;;;;;;;;;;;;;;2210097;59;1321;-80
2023/12/13 13:31:27;;;;;;;;;;;;;;;;;;2209617;59;2167;-80
2023/12/13 13:34:09;;;;;;;;;;;;;;;;;;2210095;59;2281;-81
2023/12/13 13:36:40;;;;;;;;;;;;;;;;;;2210437;59;1287;-80
2023/12/13 13:39:13;;;;;;;;;;;;;;;;;;2213984;59;1381;-80
2023/12/13 13:41:46;;;;;;;;;;;;;;;;;;2211689;67;1265;-80
2023/12/13 13:44:17;;;;;;;;;;;;;;;;;;2213524;67;1086;-79
2023/12/13 13:47:02;;;;;;;;;;;;;;;;;;2212711;67;1019;-83
2023/12/13 13:49:35;;;;;;;;;;;;;;;;;;2209192;67;1180;-80
2023/12/13 13:52:14;;;;;;;;;;;;;;;;;;2210528;67;1657;-80
2023/12/13 13:54:47;;;;;;;;;;;;;;;;;;2211388;59;1921;-80
2023/12/13 13:57:20;;;;;;;;;;;;;;;;;;2212885;59;1229;-80
2023/12/13 14:00:00;;;;;;;;;;;;;;;;;;2212423;67;1477;-80
2023/12/13 14:02:44;;;;;;;;;;;;;;;;;;2210793;59;1601;-83
2023/12/13 14:05:15;;;;;;;;;;;;;;;;;;2208995;67;1350;-80
2023/12/13 14:07:46;;;;;;;;;;;;;;;;;;2209214;59;1267;-80
2023/12/13 14:10:16;;;;;;;;;;;;;;;;;;2213270;59;1396;-81
2023/12/13 14:12:47;;;;;;;;;;;;;;;;;;2208210;67;1409;-80
2023/12/13 14:15:23;;;;;;;;;;;;;;;;;;2209801;67;1926;-80
2023/12/13 14:17:59;;;;;;;;;;;;;;;;;;2215671;67;1245;-80
2023/12/13 14:20:32;;;;;;;;;;;;;;;;;;2220258;67;1441;-78
2023/12/13 14:23:10;;;;;;;;;;;;;;;;;;2221217;59;1455;-80
2023/12/13 14:25:43;;;;;;;;;;;;;;;;;;2211641;59;1307;-80
2023/12/13 14:28:17;;;;;;;;;;;;;;;;;;2210575;67;1206;-80
2023/12/13 14:30:55;;;;;;;;;;;;;;;;;;2211674;67;1276;-80
2023/12/13 14:33:28;;;;;;;;;;;;;;;;;;2212806;59;2212;-80
2023/12/13 14:36:07;;;;;;;;;;;;;;;;;;2211111;67;1992;-80
2023/12/13 14:38:50;;;;;;;;;;;;;;;;;;2213571;59;1318;-80
2023/12/13 14:41:23;;;;;;;;;;;;;;;;;;2207950;67;1049;-80
2023/12/13 14:43:53;;;;;;;;;;;;;;;;;;2208866;67;1465;-82
2023/12/13 14:46:27;;;;;;;;;;;;;;;;;;2212348;67;1361;-80
2023/12/13 14:49:01;;;;;;;;;;;;;;;;;;2211799;67;1668;-81
2023/12/13 14:51:37;;;;;;;;;;;;;;;;;;2213030;67;1309;-80
2023/12/13 14:54:17;;;;;;;;;;;;;;;;;;2207990;67;1898;-80
2023/12/13 14:57:00;;;;;;;;;;;;;;;;;;;;;
2023/12/13 14:59:33;;;;;;;;;;;;;;;;;;2211864;67;1712;-80
2023/12/13 15:02:04;;;;;;;;;;;;;;;;;;2210475;59;1686;-80
2023/12/13 15:04:36;;;;;;;;;;;;;;;;;;2212820;59;1384;-80
2023/12/13 15:07:18;;;;;;;;;;;;;;;;;;2212658;59;1174;-83
2023/12/13 15:09:48;;;;;;;;;;;;;;;;;;2212330;59;1353;-80
2023/12/13 15:12:19;;;;;;;;;;;;;;;;;;2208763;67;1352;-81
2023/12/13 15:14:56;;;;;;;;;;;;;;;;;;2209044;67;1920;-79
2023/12/13 15:17:29;;;;;;;;;;;;;;;;;;2213675;67;1373;-80
2023/12/13 15:20:08;;;;;;;;;;;;;;;;;;2209185;67;1469;-80
2023/12/13 15:22:38;;;;;;;;;;;;;;;;;;2209837;67;1153;-80
2023/12/13 15:25:12;;;;;;;;;;;;;;;;;;2212272;59;1522;-80
2023/12/13 15:27:53;;;;;;;;;;;;;;;;;;2211933;59;1945;-80
2023/12/13 15:30:28;;;;;;;;;;;;;;;;;;2209602;67;1232;-80
2023/12/13 15:33:02;;;;;;;;;;;;;;;;;;2210758;59;1410;-80
2023/12/13 15:35:38;;;;;;;;;;;;;;;;;;2209877;59;1990;-80
2023/12/13 15:38:11;;;;;;;;;;;;;;;;;;2206338;59;1227;-81
2023/12/13 15:40:42;;;;;;;;;;;;;;;;;;2211861;67;1107;-80
2023/12/13 15:43:18;;;;;;;;;;;;;;;;;;2212680;67;1363;-80
2023/12/13 15:45:52;;;;;;;;;;;;;;;;;;2211607;67;1557;-80
2023/12/13 15:48:26;;;;;;;;;;;;;;;;;;2212146;67;1273;-80
2023/12/13 15:51:04;;;;;;;;;;;;;;;;;;2209725;67;1467;-80
2023/12/13 15:53:37;;;;;;;;;;;;;;;;;;2213010;59;1969;-80
2023/12/13 15:56:08;;;;;;;;;;;;;;;;;;2210743;67;1098;-80
2023/12/13 15:58:49;;;;;;;;;;;;;;;;;;2214630;67;1243;-79
2023/12/13 16:01:25;;;;;;;;;;;;;;;;;;2211026;67;1423;-82
2023/12/13 16:03:58;;;;;;;;;;;;;;;;;;2214312;67;2565;-81
2023/12/13 16:06:29;;;;;;;;;;;;;;;;;;2213158;59;1205;-79
2023/12/13 16:09:06;;;;;;;;;;;;;;;;;;2209954;67;1180;-80
2023/12/13 16:11:37;;;;;;;;;;;;;;;;;;2213746;59;1604;-80
2023/12/13 16:14:07;;;;;;;;;;;;;;;;;;2212550;67;1933;-80
2023/12/13 16:16:37;;;;;;;;;;;;;;;;;;2213175;67;1081;-80
2023/12/13 16:19:10;;;;;;;;;;;;;;;;;;2208655;67;1642;-80
2023/12/13 16:21:44;;;;;;;;;;;;;;;;;;2214081;67;1127;-81
2023/12/13 16:24:24;;;;;;;;;;;;;;;;;;2209235;59;1294;-83
2023/12/13 16:26:58;;;;;;;;;;;;;;;;;;2213007;59;1073;-81
2023/12/13 16:29:31;;;;;;;;;;;;;;;;;;2213793;59;1247;-80
2023/12/13 16:32:04;;;;;;;;;;;;;;;;;;2212789;59;2120;-80
2023/12/13 16:35:00;;;;;;;;;;;;;;;;;;2212664;59;1953;-80
2023/12/13 16:37:33;;;;;;;;;;;;;;;;;;2212709;59;1971;-79
2023/12/13 16:40:10;;;;;;;;;;;;;;;;;;2211035;59;2062;-80
2023/12/13 16:42:41;;;;;;;;;;;;;;;;;;2212871;59;2036;-80
2023/12/13 16:45:23;;;;;;;;;;;;;;;;;;2212820;67;977;-82
2023/12/13 16:47:59;;;;;;;;;;;;;;;;;;2211152;59;2074;-80
2023/12/13 16:50:33;;;;;;;;;;;;;;;;;;2212551;59;2323;-82
2023/12/13 16:53:06;;;;;;;;;;;;;;;;;;2211326;59;2032;-80
2023/12/13 16:55:45;;;;;;;;;;;;;;;;;;2209991;59;2131;-80
2023/12/13 16:58:25;;;;;;;;;;;;;;;;;;2213231;59;2128;-80
2023/12/13 17:01:06;;;;;;;;;;;;;;;;;;2209321;59;2458;-80
2023/12/13 17:03:42;;;;;;;;;;;;;;;;;;2212853;67;1110;-80
2023/12/13 17:06:19;;;;;;;;;;;;;;;;;;2213854;59;2347;-81
2023/12/13 17:08:59;;;;;;;;;;;;;;;;;;2212190;59;1931;-81
2023/12/13 17:11:38;;;;;;;;;;;;;;;;;;2213294;67;1655;-81
2023/12/13 17:14:39;;;;;;;;;;;;;;;;;;;;;
2023/12/13 17:17:15;;;;;;;;;;;;;;;;;;2211815;67;1268;-81
2023/12/13 17:19:56;;;;;;;;;;;;;;;;;;2210412;67;1531;-82
2023/12/13 17:22:32;;;;;;;;;;;;;;;;;;2211592;59;2336;-81
2023/12/13 17:25:03;;;;;;;;;;;;;;;;;;2213958;67;1154;-81
2023/12/13 17:27:44;;;;;;;;;;;;;;;;;;2208316;59;1491;-82
2023/12/13 17:30:15;;;;;;;;;;;;;;;;;;2211800;67;1288;-82
2023/12/13 17:32:48;;;;;;;;;;;;;;;;;;2217335;59;2021;-82
2023/12/13 17:35:20;;;;;;;;;;;;;;;;;;2221048;67;2172;-83
2023/12/13 17:37:55;;;;;;;;;;;;;;;;;;2220736;59;1750;-81
2023/12/13 17:40:29;;;;;;;;;;;;;;;;;;2222736;59;1029;-82
2023/12/13 17:43:11;;;;;;;;;;;;;;;;;;2212768;59;2107;-85
2023/12/13 17:45:43;;;;;;;;;;;;;;;;;;2214596;67;1028;-83
2023/12/13 17:48:21;;;;;;;;;;;;;;;;;;2211197;59;1960;-82